Time;durP1;ratioP1;P1;durP2;ratioP2;P2;SDS_P1;SDS_P2;PMS_P1;PMS_P2;Temp;Humidity;BMP_temperature;BMP_pressure;BME280_temperature;BME280_humidity;BME280_pressure;Samples;Min_cycle;Max_cycle;Signal;HPM_P1;HPM_P2
2022/08/24 00:02:08;;;;;;;38.30;18.00;;;;;;;;;;108464;1307;22395;-29
2022/08/24 00:04:34;;;;;;;23.50;17.10;;;;;;;;;;108479;1299;23197;-23
2022/08/24 00:07:00;;;;;;;25.30;16.70;;;;;;;;;;108471;1291;22763;-24
2022/08/24 00:09:25;;;;;;;30.50;18.60;;;;;;;;;;108462;1299;23120;-24
2022/08/24 00:11:51;;;;;;;22.70;15.20;;;;;;;;;;108355;1299;22877;-29
2022/08/24 00:14:16;;;;;;;34.60;20.80;;;;;;;;;;108423;1299;22690;-24
2022/08/24 00:16:42;;;;;;;28.50;18.20;;;;;;;;;;108295;1307;22468;-29
2022/08/24 00:19:07;;;;;;;22.00;15.40;;;;;;;;;;108448;1291;23125;-24
2022/08/24 00:21:33;;;;;;;26.40;16.60;;;;;;;;;;108504;1299;23206;-29
2022/08/24 00:23:58;;;;;;;30.00;18.00;;;;;;;;;;108447;1299;22427;-24
2022/08/24 00:26:24;;;;;;;25.20;14.10;;;;;;;;;;108472;1299;22414;-29
2022/08/24 00:28:50;;;;;;;27.40;16.90;;;;;;;;;;108487;1299;23153;-25
2022/08/24 00:31:16;;;;;;;26.20;17.40;;;;;;;;;;108458;1299;22398;-24
2022/08/24 00:33:41;;;;;;;28.90;18.10;;;;;;;;;;108245;1307;22545;-24
2022/08/24 00:36:07;;;;;;;37.30;18.20;;;;;;;;;;108432;1307;22395;-29
2022/08/24 00:38:34;;;;;;;28.50;15.30;;;;;;;;;;108439;1299;22534;-24
2022/08/24 00:41:00;;;;;;;25.40;18.10;;;;;;;;;;108460;1299;23102;-24
2022/08/24 00:43:25;;;;;;;27.10;15.50;;;;;;;;;;108449;1299;23371;-25
2022/08/24 00:45:52;;;;;;;22.10;13.90;;;;;;;;;;108475;1299;22548;-24
2022/08/24 00:48:19;;;;;;;14.60;11.50;;;;;;;;;;108402;1299;22176;-29
2022/08/24 00:50:47;;;;;;;27.20;16.90;;;;;;;;;;108450;1299;23328;-29
2022/08/24 00:53:15;;;;;;;22.40;14.50;;;;;;;;;;108468;1299;23161;-29
2022/08/24 00:55:42;;;;;;;22.50;14.40;;;;;;;;;;108108;1307;22459;-24
2022/08/24 00:58:09;;;;;;;18.30;13.90;;;;;;;;;;108452;1299;22430;-29
2022/08/24 01:00:35;;;;;;;25.50;17.80;;;;;;;;;;108360;1302;23186;-24
2022/08/24 01:03:03;;;;;;;14.90;12.00;;;;;;;;;;108389;1299;23273;-29
2022/08/24 01:05:30;;;;;;;22.80;14.30;;;;;;;;;;108448;1299;22430;-24
2022/08/24 01:07:55;;;;;;;22.20;13.80;;;;;;;;;;108465;1286;22386;-28
2022/08/24 01:10:23;;;;;;;29.00;14.90;;;;;;;;;;108485;1299;23139;-23
2022/08/24 01:12:50;;;;;;;23.80;17.10;;;;;;;;;;108280;1299;22731;-28
2022/08/24 01:15:15;;;;;;;35.40;15.60;;;;;;;;;;108363;1307;22518;-23
2022/08/24 01:20:09;;;;;;;21.30;15.80;;;;;;;;;;108500;1299;22451;-28
2022/08/24 01:22:38;;;;;;;38.60;17.40;;;;;;;;;;108398;1307;23148;-28
2022/08/24 01:25:04;;;;;;;23.70;11.80;;;;;;;;;;108434;1299;22438;-28
2022/08/24 01:27:29;;;;;;;22.70;15.20;;;;;;;;;;108452;1299;22977;-24
2022/08/24 01:29:56;;;;;;;49.10;12.00;;;;;;;;;;108450;1299;23340;-23
2022/08/24 01:32:22;;;;;;;30.40;13.10;;;;;;;;;;108480;1299;22422;-23
2022/08/24 01:34:48;;;;;;;21.90;15.10;;;;;;;;;;108465;1307;22427;-23
2022/08/24 01:37:14;;;;;;;19.90;12.60;;;;;;;;;;108355;1299;22515;-28
2022/08/24 01:39:40;;;;;;;20.80;14.30;;;;;;;;;;108434;1299;23280;-28
2022/08/24 01:42:06;;;;;;;22.00;15.50;;;;;;;;;;107778;1307;22533;-31
2022/08/24 01:44:33;;;;;;;22.80;14.70;;;;;;;;;;107727;1299;22359;-29
2022/08/24 01:46:59;;;;;;;23.10;14.40;;;;;;;;;;108449;1306;22807;-29
2022/08/24 01:49:26;;;;;;;25.10;15.80;;;;;;;;;;108461;1307;22553;-23
2022/08/24 01:51:54;;;;;;;26.70;18.00;;;;;;;;;;108485;1301;22426;-28
2022/08/24 01:54:19;;;;;;;24.10;16.20;;;;;;;;;;108458;1299;23288;-23
2022/08/24 01:56:45;;;;;;;23.60;16.60;;;;;;;;;;108356;1301;22782;-23
2022/08/24 01:59:11;;;;;;;28.20;14.70;;;;;;;;;;108445;1299;22998;-28
2022/08/24 02:01:38;;;;;;;22.70;14.80;;;;;;;;;;108430;1299;22545;-29
2022/08/24 02:04:06;;;;;;;25.30;15.60;;;;;;;;;;108445;1307;23204;-23
2022/08/24 02:06:32;;;;;;;19.00;15.40;;;;;;;;;;108460;1299;23365;-23
2022/08/24 02:08:58;;;;;;;22.60;17.10;;;;;;;;;;108434;1292;22582;-29
2022/08/24 02:11:23;;;;;;;18.60;13.50;;;;;;;;;;108441;1299;23104;-23
2022/08/24 02:13:48;;;;;;;18.30;14.50;;;;;;;;;;108459;1299;22549;-23
2022/08/24 02:16:14;;;;;;;16.70;14.30;;;;;;;;;;108458;1299;23475;-24
2022/08/24 02:18:39;;;;;;;18.60;13.70;;;;;;;;;;108460;1299;22551;-23
2022/08/24 02:21:07;;;;;;;19.10;15.10;;;;;;;;;;108479;1299;22926;-29
2022/08/24 02:23:33;;;;;;;17.70;14.10;;;;;;;;;;108465;1299;23076;-23
2022/08/24 02:25:59;;;;;;;20.30;14.30;;;;;;;;;;108486;1299;23078;-26
2022/08/24 02:28:25;;;;;;;24.00;14.00;;;;;;;;;;108457;1299;22404;-23
2022/08/24 02:30:51;;;;;;;21.10;13.80;;;;;;;;;;108456;1299;23253;-29
2022/08/24 02:33:17;;;;;;;20.60;14.50;;;;;;;;;;108380;1300;22952;-23
2022/08/24 02:35:42;;;;;;;25.60;14.70;;;;;;;;;;108449;1299;23025;-28
2022/08/24 02:38:08;;;;;;;26.50;15.30;;;;;;;;;;108430;1299;23081;-24
2022/08/24 02:40:34;;;;;;;30.70;17.70;;;;;;;;;;108402;1307;22506;-28
2022/08/24 02:43:00;;;;;;;29.10;17.00;;;;;;;;;;108311;1300;23206;-28
2022/08/24 02:45:25;;;;;;;19.70;14.50;;;;;;;;;;108461;1299;23366;-28
2022/08/24 02:47:51;;;;;;;25.60;17.10;;;;;;;;;;108445;1299;22421;-23
2022/08/24 02:50:16;;;;;;;27.30;15.80;;;;;;;;;;108452;1299;22448;-28
2022/08/24 02:52:43;;;;;;;25.20;14.70;;;;;;;;;;108467;1299;23547;-28
2022/08/24 02:55:09;;;;;;;20.00;13.50;;;;;;;;;;108467;1299;22427;-23
2022/08/24 02:57:35;;;;;;;25.10;15.40;;;;;;;;;;108437;1299;23156;-28
2022/08/24 03:00:00;;;;;;;22.20;13.20;;;;;;;;;;108491;1299;23220;-28
2022/08/24 03:02:26;;;;;;;20.90;14.50;;;;;;;;;;108338;1299;23112;-23
2022/08/24 03:04:52;;;;;;;32.70;14.50;;;;;;;;;;108470;1299;23608;-23
2022/08/24 03:07:17;;;;;;;19.50;13.90;;;;;;;;;;108425;1307;22546;-23
2022/08/24 03:09:43;;;;;;;19.80;13.40;;;;;;;;;;108314;1299;22534;-23
2022/08/24 03:12:08;;;;;;;26.00;15.20;;;;;;;;;;108485;1299;23359;-23
2022/08/24 03:14:34;;;;;;;27.90;17.40;;;;;;;;;;108454;1299;22497;-23
2022/08/24 03:17:00;;;;;;;22.90;14.20;;;;;;;;;;108306;1299;23151;-24
2022/08/24 03:19:25;;;;;;;20.50;14.30;;;;;;;;;;108427;1306;22444;-30
2022/08/24 03:21:52;;;;;;;26.30;16.00;;;;;;;;;;108321;1301;23198;-30
2022/08/24 03:24:19;;;;;;;26.20;15.30;;;;;;;;;;108451;1299;22451;-25
2022/08/24 03:26:44;;;;;;;21.50;14.30;;;;;;;;;;108192;1307;23115;-24
2022/08/24 03:29:10;;;;;;;28.70;15.20;;;;;;;;;;108467;1299;23335;-30
2022/08/24 03:31:36;;;;;;;23.20;15.00;;;;;;;;;;108442;1299;23417;-25
2022/08/24 03:34:02;;;;;;;22.40;16.30;;;;;;;;;;108432;1299;22398;-29
2022/08/24 03:36:28;;;;;;;24.60;15.40;;;;;;;;;;107837;1307;22546;-30
2022/08/24 03:38:53;;;;;;;27.90;15.20;;;;;;;;;;108450;1307;22536;-25
2022/08/24 03:41:19;;;;;;;23.90;14.90;;;;;;;;;;108079;1306;22544;-25
2022/08/24 03:43:44;;;;;;;22.30;14.00;;;;;;;;;;108025;1301;22545;-30
2022/08/24 03:46:10;;;;;;;22.40;14.10;;;;;;;;;;108435;1299;23361;-30
2022/08/24 03:48:36;;;;;;;29.00;14.30;;;;;;;;;;108446;1299;22413;-30
2022/08/24 03:51:01;;;;;;;19.40;15.00;;;;;;;;;;108467;1299;23102;-25
2022/08/24 03:53:27;;;;;;;18.50;13.60;;;;;;;;;;108480;1299;22416;-25
2022/08/24 03:55:53;;;;;;;20.60;15.40;;;;;;;;;;108472;1299;22338;-23
2022/08/24 03:58:18;;;;;;;23.80;13.50;;;;;;;;;;108425;1307;22477;-23
2022/08/24 04:00:44;;;;;;;33.20;15.80;;;;;;;;;;107756;1292;25268;-23
2022/08/24 04:03:10;;;;;;;15.30;11.20;;;;;;;;;;108147;1299;22588;-23
2022/08/24 04:05:36;;;;;;;19.50;14.40;;;;;;;;;;108384;1301;22391;-29
2022/08/24 04:08:02;;;;;;;26.30;18.10;;;;;;;;;;108174;1299;22630;-23
2022/08/24 04:10:28;;;;;;;27.00;17.40;;;;;;;;;;108390;1299;23259;-23
2022/08/24 04:12:53;;;;;;;37.70;18.70;;;;;;;;;;108449;1307;23131;-28
2022/08/24 04:15:19;;;;;;;24.60;16.80;;;;;;;;;;108431;1299;22455;-28
2022/08/24 04:17:44;;;;;;;20.80;14.00;;;;;;;;;;108412;1299;23293;-23
2022/08/24 04:20:10;;;;;;;29.00;18.90;;;;;;;;;;108411;1307;22531;-29
2022/08/24 04:22:36;;;;;;;23.00;14.80;;;;;;;;;;108462;1299;22530;-28
2022/08/24 04:25:01;;;;;;;38.90;17.40;;;;;;;;;;108464;1299;22458;-29
2022/08/24 04:27:27;;;;;;;26.20;16.20;;;;;;;;;;108434;1299;22588;-29
2022/08/24 04:29:53;;;;;;;20.50;14.60;;;;;;;;;;108481;1299;22608;-23
2022/08/24 04:32:18;;;;;;;21.70;15.50;;;;;;;;;;108417;1299;23153;-29
2022/08/24 04:34:44;;;;;;;25.30;17.30;;;;;;;;;;108435;1299;22527;-29
2022/08/24 04:37:09;;;;;;;28.90;16.50;;;;;;;;;;108286;1307;22282;-29
2022/08/24 04:39:35;;;;;;;18.60;13.70;;;;;;;;;;108412;1299;22539;-29
2022/08/24 04:42:00;;;;;;;17.20;12.80;;;;;;;;;;108461;1307;23302;-23
2022/08/24 04:44:26;;;;;;;41.60;15.30;;;;;;;;;;108369;1305;22593;-26
2022/08/24 04:46:52;;;;;;;19.30;13.50;;;;;;;;;;108481;1299;23049;-28
2022/08/24 04:49:17;;;;;;;21.40;15.40;;;;;;;;;;108465;1299;22550;-29
2022/08/24 04:51:43;;;;;;;19.90;16.20;;;;;;;;;;108459;1299;22978;-30
2022/08/24 04:54:09;;;;;;;32.50;17.30;;;;;;;;;;108397;1307;22904;-23
2022/08/24 04:56:34;;;;;;;17.00;13.90;;;;;;;;;;108276;1300;23296;-29
2022/08/24 04:59:00;;;;;;;60.50;13.90;;;;;;;;;;108420;1301;22557;-28
2022/08/24 05:01:25;;;;;;;41.00;14.30;;;;;;;;;;108477;1299;23070;-24
2022/08/24 05:03:52;;;;;;;16.60;13.00;;;;;;;;;;108434;1299;23319;-23
2022/08/24 05:06:20;;;;;;;30.90;14.80;;;;;;;;;;108481;1292;22493;-28
2022/08/24 05:08:46;;;;;;;21.50;15.60;;;;;;;;;;108117;1299;23333;-27
2022/08/24 05:11:12;;;;;;;29.40;15.30;;;;;;;;;;108444;1299;22200;-28
2022/08/24 05:13:38;;;;;;;19.60;13.40;;;;;;;;;;108402;1299;22456;-28
2022/08/24 05:16:05;;;;;;;25.90;16.50;;;;;;;;;;107137;1285;23151;-28
2022/08/24 05:18:32;;;;;;;19.50;15.40;;;;;;;;;;108438;1299;22871;-28
2022/08/24 05:20:58;;;;;;;21.10;13.30;;;;;;;;;;108438;1299;22531;-28
2022/08/24 05:23:23;;;;;;;17.80;12.90;;;;;;;;;;107829;1299;22522;-28
2022/08/24 05:25:49;;;;;;;17.10;13.10;;;;;;;;;;108342;1301;22539;-29
2022/08/24 05:28:14;;;;;;;13.90;10.60;;;;;;;;;;108387;1299;23323;-23
2022/08/24 05:30:40;;;;;;;12.30;10.70;;;;;;;;;;108437;1299;22417;-29
2022/08/24 05:33:06;;;;;;;13.30;11.40;;;;;;;;;;108065;1299;540410;-24
2022/08/24 05:35:35;;;;;;;14.20;11.40;;;;;;;;;;108426;1299;22565;-28
2022/08/24 05:38:01;;;;;;;38.20;12.30;;;;;;;;;;108399;1299;23319;-29
2022/08/24 05:40:26;;;;;;;10.50;8.50;;;;;;;;;;108333;1299;23320;-28
2022/08/24 05:42:52;;;;;;;18.10;13.00;;;;;;;;;;108429;1299;23215;-28
2022/08/24 05:45:17;;;;;;;17.00;12.00;;;;;;;;;;108463;1299;22713;-29
2022/08/24 05:47:43;;;;;;;20.70;13.90;;;;;;;;;;108404;1299;22456;-23
2022/08/24 05:50:08;;;;;;;14.60;12.00;;;;;;;;;;108430;1299;23134;-29
2022/08/24 05:52:34;;;;;;;25.30;11.80;;;;;;;;;;108398;1299;23196;-28
2022/08/24 05:55:00;;;;;;;18.30;13.30;;;;;;;;;;108401;1301;23325;-24
2022/08/24 05:57:26;;;;;;;32.00;15.60;;;;;;;;;;108428;1299;22990;-27
2022/08/24 05:59:51;;;;;;;22.40;10.00;;;;;;;;;;108310;1299;22545;-24
2022/08/24 06:02:17;;;;;;;22.30;11.90;;;;;;;;;;108402;1307;22763;-28
2022/08/24 06:04:43;;;;;;;17.80;13.70;;;;;;;;;;108357;1299;23176;-28
2022/08/24 06:07:10;;;;;;;19.00;11.90;;;;;;;;;;108382;1299;22543;-23
2022/08/24 06:09:37;;;;;;;15.90;12.00;;;;;;;;;;108421;1299;22529;-23
2022/08/24 06:12:03;;;;;;;12.10;9.90;;;;;;;;;;108470;1299;22434;-24
2022/08/24 06:14:28;;;;;;;14.10;11.10;;;;;;;;;;108448;1299;25364;-41
2022/08/24 06:16:53;;;;;;;14.80;11.50;;;;;;;;;;108436;1299;22569;-23
2022/08/24 06:19:19;;;;;;;14.30;9.40;;;;;;;;;;108211;1307;23112;-24
2022/08/24 06:21:45;;;;;;;23.90;13.00;;;;;;;;;;108178;1307;22533;-29
2022/08/24 06:24:11;;;;;;;15.50;10.50;;;;;;;;;;108448;1299;22543;-29
2022/08/24 06:29:06;;;;;;;20.20;10.80;;;;;;;;;;108470;1299;22486;-29
2022/08/24 06:31:35;;;;;;;17.40;11.10;;;;;;;;;;108345;1300;22714;-24
2022/08/24 06:34:01;;;;;;;15.60;10.10;;;;;;;;;;108424;1307;22460;-24
2022/08/24 06:36:26;;;;;;;14.40;11.90;;;;;;;;;;108329;1299;22457;-24
2022/08/24 06:38:52;;;;;;;19.70;13.80;;;;;;;;;;108439;1299;22997;-23
2022/08/24 06:41:19;;;;;;;17.50;11.90;;;;;;;;;;107714;1299;1002452;-29
2022/08/24 06:43:44;;;;;;;14.40;11.00;;;;;;;;;;108438;1299;23697;-24
2022/08/24 06:46:10;;;;;;;15.80;11.50;;;;;;;;;;108337;1299;22397;-29
2022/08/24 06:48:35;;;;;;;18.50;14.50;;;;;;;;;;108459;1299;23309;-29
2022/08/24 06:51:06;;;;;;;14.30;11.80;;;;;;;;;;108393;1299;22537;-28
2022/08/24 06:53:32;;;;;;;15.90;12.60;;;;;;;;;;108461;1299;23401;-24
2022/08/24 06:55:57;;;;;;;16.10;12.00;;;;;;;;;;108435;1300;23238;-29
2022/08/24 06:58:23;;;;;;;14.00;8.70;;;;;;;;;;108419;1299;22544;-24
2022/08/24 07:00:49;;;;;;;13.00;11.50;;;;;;;;;;108458;1299;22447;-23
2022/08/24 07:03:15;;;;;;;13.50;9.80;;;;;;;;;;108391;1299;23394;-29
2022/08/24 07:05:48;;;;;;;16.80;9.30;;;;;;;;;;108461;1306;23194;-29
2022/08/24 07:08:14;;;;;;;12.80;9.20;;;;;;;;;;108429;1301;22530;-29
2022/08/24 07:10:41;;;;;;;11.30;9.70;;;;;;;;;;108021;1301;22526;-23
2022/08/24 07:13:06;;;;;;;30.60;12.20;;;;;;;;;;108393;1299;23190;-29
2022/08/24 07:15:33;;;;;;;14.30;10.20;;;;;;;;;;108459;1299;22801;-23
2022/08/24 07:17:58;;;;;;;11.90;8.80;;;;;;;;;;108445;1299;23111;-29
2022/08/24 07:20:24;;;;;;;13.00;9.50;;;;;;;;;;108430;1299;23243;-23
2022/08/24 07:22:49;;;;;;;14.90;8.60;;;;;;;;;;108435;1307;23177;-24
2022/08/24 07:25:15;;;;;;;14.20;10.80;;;;;;;;;;108399;1299;22508;-24
2022/08/24 07:27:41;;;;;;;13.90;11.10;;;;;;;;;;108400;1301;22574;-25
2022/08/24 07:30:07;;;;;;;17.10;10.70;;;;;;;;;;108273;1301;23055;-24
2022/08/24 07:32:33;;;;;;;14.80;9.40;;;;;;;;;;107731;1307;22397;-24
2022/08/24 07:34:58;;;;;;;13.60;11.60;;;;;;;;;;108448;1299;22431;-29
2022/08/24 07:37:24;;;;;;;13.90;10.50;;;;;;;;;;108444;1299;23214;-29
2022/08/24 07:39:50;;;;;;;11.30;9.30;;;;;;;;;;108442;1299;22785;-29
2022/08/24 07:42:16;;;;;;;11.80;9.90;;;;;;;;;;108404;1285;22533;-24
2022/08/24 07:44:42;;;;;;;20.80;12.60;;;;;;;;;;108433;1307;22546;-23
2022/08/24 07:47:07;;;;;;;14.30;10.80;;;;;;;;;;108386;1285;25187;-28
2022/08/24 07:49:33;;;;;;;11.60;10.10;;;;;;;;;;108372;1301;23125;-29
2022/08/24 07:51:59;;;;;;;14.10;10.10;;;;;;;;;;108406;1299;22544;-29
2022/08/24 07:54:26;;;;;;;16.90;11.40;;;;;;;;;;108463;1299;23300;-24
2022/08/24 07:56:51;;;;;;;17.50;10.10;;;;;;;;;;108447;1299;22562;-24
2022/08/24 07:59:17;;;;;;;11.30;8.00;;;;;;;;;;108430;1300;22546;-24
2022/08/24 08:01:42;;;;;;;16.80;12.00;;;;;;;;;;108426;1299;22984;-29
2022/08/24 08:04:08;;;;;;;12.60;8.10;;;;;;;;;;108448;1299;22745;-29
2022/08/24 08:06:34;;;;;;;8.80;7.00;;;;;;;;;;108415;1285;23251;-24
2022/08/24 08:09:03;;;;;;;9.60;8.50;;;;;;;;;;107617;1285;22530;-23
2022/08/24 08:11:29;;;;;;;12.90;9.30;;;;;;;;;;108290;1307;22197;-28
2022/08/24 08:13:54;;;;;;;21.20;12.50;;;;;;;;;;108369;1299;25335;-28
2022/08/24 08:16:20;;;;;;;14.00;9.40;;;;;;;;;;108125;1285;22495;-29
2022/08/24 08:18:46;;;;;;;13.10;10.00;;;;;;;;;;108445;1299;23224;-28
2022/08/24 08:26:26;;;;;;;12.90;10.40;;;;;;;;;;108437;1285;22531;-23
2022/08/24 08:28:51;;;;;;;21.70;10.20;;;;;;;;;;108280;1299;22544;-26
2022/08/24 08:31:17;;;;;;;10.70;8.80;;;;;;;;;;108126;1307;22457;-29
2022/08/24 08:33:43;;;;;;;15.00;10.20;;;;;;;;;;108123;1301;22738;-28
2022/08/24 08:36:10;;;;;;;14.10;9.70;;;;;;;;;;108422;1299;23556;-29
2022/08/24 08:38:36;;;;;;;13.50;8.70;;;;;;;;;;108459;1299;22418;-24
2022/08/24 08:41:06;;;;;;;11.10;8.80;;;;;;;;;;108241;1300;23342;-29
2022/08/24 08:43:35;;;;;;;18.00;10.70;;;;;;;;;;108309;1285;22561;-25
2022/08/24 08:46:04;;;;;;;14.20;10.50;;;;;;;;;;108427;1306;23252;-29
2022/08/24 08:48:31;;;;;;;18.20;11.30;;;;;;;;;;107742;1307;22538;-31
2022/08/24 08:51:06;;;;;;;12.80;9.60;;;;;;;;;;108169;1307;23182;-24
2022/08/24 08:53:37;;;;;;;12.60;10.40;;;;;;;;;;108195;1299;22514;-24
2022/08/24 08:56:05;;;;;;;14.10;9.60;;;;;;;;;;108358;1286;22556;-23
2022/08/24 08:58:32;;;;;;;11.10;8.80;;;;;;;;;;108155;1299;23206;-29
2022/08/24 09:01:00;;;;;;;16.40;9.70;;;;;;;;;;108418;1299;22457;-23
2022/08/24 09:03:29;;;;;;;17.10;9.20;;;;;;;;;;108217;1301;22534;-28
2022/08/24 09:05:58;;;;;;;14.40;8.60;;;;;;;;;;108365;1300;23153;-23
2022/08/24 09:08:29;;;;;;;17.90;8.80;;;;;;;;;;108444;1299;22639;-28
2022/08/24 09:11:00;;;;;;;11.90;9.40;;;;;;;;;;108486;1299;23372;-28
2022/08/24 09:13:31;;;;;;;12.80;7.90;;;;;;;;;;108220;1302;22550;-23
2022/08/24 09:15:57;;;;;;;11.80;8.60;;;;;;;;;;108552;1299;22451;-29
2022/08/24 09:18:27;;;;;;;12.50;8.70;;;;;;;;;;108402;1299;23135;-29
2022/08/24 09:20:56;;;;;;;11.30;8.60;;;;;;;;;;108438;1300;22527;-23
2022/08/24 09:23:25;;;;;;;11.40;9.80;;;;;;;;;;108459;1307;23184;-28
2022/08/24 09:25:57;;;;;;;10.50;7.00;;;;;;;;;;108364;1299;22527;-23
2022/08/24 09:28:26;;;;;;;10.80;6.70;;;;;;;;;;108321;1300;22484;-23
2022/08/24 09:30:56;;;;;;;12.80;8.60;;;;;;;;;;108379;1299;23285;-23
2022/08/24 09:33:23;;;;;;;18.20;7.80;;;;;;;;;;108244;1299;25206;-28
2022/08/24 09:35:49;;;;;;;10.40;6.30;;;;;;;;;;108382;1301;22571;-28
2022/08/24 09:38:21;;;;;;;19.90;7.80;;;;;;;;;;108222;1300;22547;-28
2022/08/24 09:40:54;;;;;;;11.70;6.30;;;;;;;;;;108545;1299;23177;-23
2022/08/24 09:43:23;;;;;;;9.00;8.10;;;;;;;;;;108476;1299;23204;-28
2022/08/24 09:45:53;;;;;;;11.50;7.60;;;;;;;;;;108434;1291;23687;-23
2022/08/24 09:48:20;;;;;;;17.50;7.10;;;;;;;;;;108470;1299;23328;-28
2022/08/24 09:50:47;;;;;;;16.40;8.80;;;;;;;;;;108412;1299;22460;-23
2022/08/24 09:53:14;;;;;;;8.20;7.20;;;;;;;;;;108236;1301;23276;-28
2022/08/24 09:55:43;;;;;;;12.50;7.80;;;;;;;;;;108447;1307;22415;-28
2022/08/24 09:58:12;;;;;;;17.20;9.70;;;;;;;;;;108382;1300;23213;-28
2022/08/24 10:00:38;;;;;;;12.60;6.00;;;;;;;;;;108417;1285;23302;-28
2022/08/24 10:03:13;;;;;;;12.00;5.40;;;;;;;;;;107779;1299;1002875;-24
2022/08/24 10:05:46;;;;;;;20.10;8.10;;;;;;;;;;108335;1307;22531;-28
2022/08/24 10:08:14;;;;;;;17.10;8.50;;;;;;;;;;108398;1301;23153;-23
2022/08/24 10:10:43;;;;;;;21.80;9.50;;;;;;;;;;108357;1299;22543;-23
2022/08/24 10:13:22;;;;;;;11.00;7.20;;;;;;;;;;108400;1299;23735;-23
2022/08/24 10:15:49;;;;;;;10.60;6.00;;;;;;;;;;108528;1299;22435;-23
2022/08/24 10:18:19;;;;;;;13.40;7.10;;;;;;;;;;108422;1299;22409;-28
2022/08/24 10:20:48;;;;;;;11.00;7.20;;;;;;;;;;108325;1299;22552;-23
2022/08/24 10:23:15;;;;;;;12.00;6.50;;;;;;;;;;108421;1299;23130;-28
2022/08/24 10:25:46;;;;;;;12.00;8.60;;;;;;;;;;108402;1299;22799;-28
2022/08/24 10:28:23;;;;;;;14.50;8.70;;;;;;;;;;108447;1299;22370;-23
2022/08/24 10:30:52;;;;;;;11.10;7.00;;;;;;;;;;108259;1301;22445;-23
2022/08/24 10:33:18;;;;;;;8.90;5.70;;;;;;;;;;108398;1307;23708;-23
2022/08/24 10:36:03;;;;;;;13.40;6.80;;;;;;;;;;108446;1299;23203;-28
2022/08/24 10:41:05;;;;;;;6.00;5.00;;;;;;;;;;108334;1299;22567;-28
2022/08/24 10:43:36;;;;;;;10.50;5.60;;;;;;;;;;108276;1299;22397;-23
2022/08/24 10:46:22;;;;;;;7.40;5.20;;;;;;;;;;108446;1307;22565;-29
2022/08/24 10:48:53;;;;;;;17.00;7.20;;;;;;;;;;108109;1307;23276;-24
2022/08/24 10:51:27;;;;;;;15.10;7.70;;;;;;;;;;108522;1299;23248;-29
2022/08/24 10:53:52;;;;;;;15.10;7.40;;;;;;;;;;108446;1299;23257;-24
2022/08/24 10:56:19;;;;;;;12.90;8.20;;;;;;;;;;108464;1299;22542;-24
2022/08/24 10:58:49;;;;;;;23.80;9.60;;;;;;;;;;107766;1299;23256;-24
2022/08/24 11:01:18;;;;;;;19.10;7.50;;;;;;;;;;108261;1301;23142;-29
2022/08/24 11:03:47;;;;;;;14.80;9.50;;;;;;;;;;108413;1299;22533;-29
2022/08/24 11:06:13;;;;;;;16.20;9.70;;;;;;;;;;108373;1300;22504;-23
2022/08/24 11:08:38;;;;;;;11.10;7.70;;;;;;;;;;108456;1299;22775;-28
2022/08/24 11:11:06;;;;;;;18.70;7.40;;;;;;;;;;108425;1299;23337;-24
2022/08/24 11:13:32;;;;;;;16.90;8.50;;;;;;;;;;108409;1307;23297;-23
2022/08/24 11:15:58;;;;;;;11.60;8.80;;;;;;;;;;107157;1299;1002396;-28
2022/08/24 11:18:24;;;;;;;11.20;5.40;;;;;;;;;;108441;1291;23285;-24
2022/08/24 11:20:51;;;;;;;13.20;5.80;;;;;;;;;;108453;1299;22402;-28
2022/08/24 11:23:20;;;;;;;9.30;5.70;;;;;;;;;;108418;1299;22540;-24
2022/08/24 11:25:49;;;;;;;6.30;5.00;;;;;;;;;;108394;1300;22534;-29
2022/08/24 11:28:18;;;;;;;8.30;4.10;;;;;;;;;;108446;1299;22346;-29
2022/08/24 11:30:43;;;;;;;4.70;4.30;;;;;;;;;;108122;1301;23232;-28
2022/08/24 11:33:12;;;;;;;18.70;6.20;;;;;;;;;;108444;1299;22779;-24
2022/08/24 11:35:38;;;;;;;7.70;4.70;;;;;;;;;;108421;1299;22718;-23
2022/08/24 11:38:06;;;;;;;8.60;5.20;;;;;;;;;;108441;1299;22590;-23
2022/08/24 11:40:38;;;;;;;8.20;4.20;;;;;;;;;;108454;1299;24066;-28
2022/08/24 11:43:25;;;;;;;5.40;3.90;;;;;;;;;;108537;1299;23155;-28
2022/08/24 11:45:57;;;;;;;7.70;5.40;;;;;;;;;;108382;1299;23213;-28
2022/08/24 11:48:22;;;;;;;15.70;4.70;;;;;;;;;;108316;1301;22499;-23
2022/08/24 11:50:51;;;;;;;5.00;3.90;;;;;;;;;;108445;1299;22771;-29
2022/08/24 11:53:23;;;;;;;14.10;4.90;;;;;;;;;;108384;1307;22744;-24
2022/08/24 11:55:55;;;;;;;5.70;3.60;;;;;;;;;;108376;1306;23132;-23
2022/08/24 11:58:24;;;;;;;12.30;4.70;;;;;;;;;;108446;1299;22568;-24
2022/08/24 12:00:54;;;;;;;8.90;3.30;;;;;;;;;;108447;1299;22558;-29
2022/08/24 12:03:27;;;;;;;10.80;3.50;;;;;;;;;;107719;1299;1002900;-28
2022/08/24 12:05:57;;;;;;;7.40;3.80;;;;;;;;;;108461;1299;23191;-24
2022/08/24 12:08:26;;;;;;;10.30;3.30;;;;;;;;;;108278;1301;23655;-24
2022/08/24 12:10:56;;;;;;;10.30;3.90;;;;;;;;;;108424;1301;23264;-29
2022/08/24 12:13:26;;;;;;;13.80;3.90;;;;;;;;;;108383;1306;22465;-25
2022/08/24 12:16:00;;;;;;;16.00;4.60;;;;;;;;;;108424;1306;23504;-24
2022/08/24 12:18:28;;;;;;;9.90;4.20;;;;;;;;;;108435;1299;23175;-29
2022/08/24 12:20:53;;;;;;;6.70;3.30;;;;;;;;;;108209;1301;23086;-29
2022/08/24 12:23:22;;;;;;;14.30;3.90;;;;;;;;;;108396;1299;23285;-29
2022/08/24 12:28:21;;;;;;;11.70;3.30;;;;;;;;;;108468;1299;23235;-24
2022/08/24 12:30:47;;;;;;;11.60;3.10;;;;;;;;;;108456;1299;22458;-25
2022/08/24 12:33:12;;;;;;;19.40;3.80;;;;;;;;;;108450;1299;22665;-29
2022/08/24 12:35:40;;;;;;;8.10;3.40;;;;;;;;;;108448;1299;23054;-24
2022/08/24 12:38:10;;;;;;;14.30;4.90;;;;;;;;;;108420;1306;23130;-29
2022/08/24 12:40:40;;;;;;;6.20;2.70;;;;;;;;;;108459;1299;22089;-24
2022/08/24 12:43:07;;;;;;;4.90;2.70;;;;;;;;;;108431;1301;23635;-24
2022/08/24 12:45:34;;;;;;;11.10;3.20;;;;;;;;;;108393;1299;23236;-29
2022/08/24 12:48:03;;;;;;;14.10;4.20;;;;;;;;;;108071;1307;23330;-24
2022/08/24 12:50:31;;;;;;;11.90;4.50;;;;;;;;;;108414;1299;22516;-29
2022/08/24 12:53:04;;;;;;;4.80;2.80;;;;;;;;;;108430;1299;22394;-29
2022/08/24 12:55:29;;;;;;;13.50;3.50;;;;;;;;;;108306;1301;23105;-29
2022/08/24 12:57:59;;;;;;;9.40;3.50;;;;;;;;;;108244;1299;22463;-29
2022/08/24 13:00:26;;;;;;;8.80;3.20;;;;;;;;;;108053;1301;23329;-29
2022/08/24 13:02:54;;;;;;;4.10;2.70;;;;;;;;;;108446;1299;23204;-29
2022/08/24 13:05:19;;;;;;;6.50;3.40;;;;;;;;;;108398;1299;23181;-26
2022/08/24 13:07:47;;;;;;;8.90;4.00;;;;;;;;;;108465;1299;23256;-28
2022/08/24 13:10:14;;;;;;;10.70;3.60;;;;;;;;;;108428;1299;25250;-23
2022/08/24 13:12:59;;;;;;;7.80;4.30;;;;;;;;;;108380;1307;22465;-23
2022/08/24 13:15:45;;;;;;;7.00;4.50;;;;;;;;;;108133;1306;22520;-28
2022/08/24 13:18:10;;;;;;;7.20;4.10;;;;;;;;;;108272;1307;23292;-27
2022/08/24 13:20:39;;;;;;;9.40;3.60;;;;;;;;;;108347;1299;22084;-24
2022/08/24 13:23:08;;;;;;;8.40;3.60;;;;;;;;;;108443;1285;23702;-28
2022/08/24 13:25:37;;;;;;;18.50;4.30;;;;;;;;;;108284;1299;23413;-28
2022/08/24 13:28:05;;;;;;;20.20;3.80;;;;;;;;;;108368;1307;23148;-23
2022/08/24 13:30:32;;;;;;;9.50;3.30;;;;;;;;;;108418;1299;23439;-24
2022/08/24 13:33:00;;;;;;;7.10;3.50;;;;;;;;;;107842;1300;754626;-24
2022/08/24 13:35:29;;;;;;;10.50;3.00;;;;;;;;;;108412;1307;23160;-23
2022/08/24 13:37:58;;;;;;;8.30;3.50;;;;;;;;;;108456;1307;22999;-28
2022/08/24 13:40:24;;;;;;;7.50;4.10;;;;;;;;;;108429;1299;23144;-24
2022/08/24 13:42:49;;;;;;;20.70;4.50;;;;;;;;;;108452;1299;23235;-28
2022/08/24 13:45:17;;;;;;;8.90;4.20;;;;;;;;;;108481;1299;22537;-28
2022/08/24 13:47:43;;;;;;;10.50;4.40;;;;;;;;;;108220;1307;22426;-23
2022/08/24 13:50:10;;;;;;;7.30;4.20;;;;;;;;;;108271;1300;23737;-24
2022/08/24 13:52:36;;;;;;;7.00;4.10;;;;;;;;;;108125;1307;22425;-26
2022/08/24 13:55:06;;;;;;;7.70;5.30;;;;;;;;;;108458;1299;23111;-27
2022/08/24 13:57:36;;;;;;;12.60;4.80;;;;;;;;;;108439;1307;22132;-24
2022/08/24 14:00:11;;;;;;;21.70;4.70;;;;;;;;;;108298;1301;22663;-28
2022/08/24 14:02:41;;;;;;;13.10;4.40;;;;;;;;;;108435;1300;22532;-27
2022/08/24 14:05:10;;;;;;;32.90;5.80;;;;;;;;;;108320;1299;22544;-23
2022/08/24 14:07:39;;;;;;;20.20;4.30;;;;;;;;;;107743;1307;23263;-27
2022/08/24 14:10:07;;;;;;;13.00;3.80;;;;;;;;;;108403;1299;23329;-23
2022/08/24 14:12:37;;;;;;;13.00;3.80;;;;;;;;;;108331;1301;22536;-28
2022/08/24 14:15:06;;;;;;;21.40;4.90;;;;;;;;;;108440;1302;22772;-28
2022/08/24 14:20:10;;;;;;;14.90;5.70;;;;;;;;;;108365;1299;23360;-27
2022/08/24 14:22:38;;;;;;;13.40;4.50;;;;;;;;;;108160;1301;23349;-23
2022/08/24 14:25:07;;;;;;;8.40;3.90;;;;;;;;;;108343;1299;22907;-23
2022/08/24 14:27:33;;;;;;;13.40;4.80;;;;;;;;;;108402;1307;22371;-24
2022/08/24 14:30:02;;;;;;;10.50;6.90;;;;;;;;;;108420;1299;23220;-27